sensor_id;sensor_type;location;lat;lon;timestamp;P1;durP1;ratioP1;P2;durP2;ratioP2
69260;SDS011;56378;52.404;20.816;2023-03-14T00:02:22;15.35;;;4.82;;
69260;SDS011;56378;52.404;20.816;2023-03-14T00:04:48;11.03;;;4.57;;
69260;SDS011;56378;52.404;20.816;2023-03-14T00:07:14;8.75;;;3.53;;
69260;SDS011;56378;52.404;20.816;2023-03-14T00:09:40;10.55;;;3.53;;
69260;SDS011;56378;52.404;20.816;2023-03-14T00:12:06;6.97;;;3.00;;
69260;SDS011;56378;52.404;20.816;2023-03-14T00:14:32;11.90;;;3.75;;
69260;SDS011;56378;52.404;20.816;2023-03-14T00:16:58;9.10;;;3.85;;
69260;SDS011;56378;52.404;20.816;2023-03-14T00:19:24;10.00;;;3.70;;
69260;SDS011;56378;52.404;20.816;2023-03-14T00:21:50;11.40;;;4.40;;
69260;SDS011;56378;52.404;20.816;2023-03-14T00:24:15;10.33;;;3.80;;
69260;SDS011;56378;52.404;20.816;2023-03-14T00:26:41;8.37;;;3.13;;
69260;SDS011;56378;52.404;20.816;2023-03-14T00:29:07;11.85;;;4.10;;
69260;SDS011;56378;52.404;20.816;2023-03-14T00:31:32;12.13;;;3.73;;
69260;SDS011;56378;52.404;20.816;2023-03-14T00:34:00;12.15;;;4.30;;
69260;SDS011;56378;52.404;20.816;2023-03-14T00:36:26;11.68;;;3.10;;
69260;SDS011;56378;52.404;20.816;2023-03-14T00:38:52;10.03;;;4.03;;
69260;SDS011;56378;52.404;20.816;2023-03-14T00:41:19;11.90;;;4.00;;
69260;SDS011;56378;52.404;20.816;2023-03-14T00:43:47;9.73;;;3.95;;
69260;SDS011;56378;52.404;20.816;2023-03-14T00:46:13;10.02;;;4.00;;
69260;SDS011;56378;52.404;20.816;2023-03-14T00:48:39;9.73;;;3.37;;
69260;SDS011;56378;52.404;20.816;2023-03-14T00:51:06;10.10;;;4.10;;
69260;SDS011;56378;52.404;20.816;2023-03-14T00:53:37;11.60;;;3.92;;
69260;SDS011;56378;52.404;20.816;2023-03-14T00:56:09;9.80;;;3.80;;
69260;SDS011;56378;52.404;20.816;2023-03-14T00:58:35;10.93;;;4.07;;
69260;SDS011;56378;52.404;20.816;2023-03-14T01:01:08;10.02;;;4.00;;
69260;SDS011;56378;52.404;20.816;2023-03-14T01:03:35;10.27;;;4.28;;
69260;SDS011;56378;52.404;20.816;2023-03-14T01:06:21;11.30;;;4.40;;
69260;SDS011;56378;52.404;20.816;2023-03-14T01:08:48;9.82;;;4.20;;
69260;SDS011;56378;52.404;20.816;2023-03-14T01:11:16;11.32;;;4.35;;
69260;SDS011;56378;52.404;20.816;2023-03-14T01:13:44;10.27;;;3.88;;
69260;SDS011;56378;52.404;20.816;2023-03-14T01:16:11;11.00;;;4.07;;
69260;SDS011;56378;52.404;20.816;2023-03-14T01:18:38;10.27;;;4.10;;
69260;SDS011;56378;52.404;20.816;2023-03-14T01:21:09;11.95;;;4.30;;
69260;SDS011;56378;52.404;20.816;2023-03-14T01:23:41;12.75;;;4.10;;
69260;SDS011;56378;52.404;20.816;2023-03-14T01:26:13;9.70;;;3.97;;
69260;SDS011;56378;52.404;20.816;2023-03-14T01:28:41;10.95;;;4.30;;
69260;SDS011;56378;52.404;20.816;2023-03-14T01:31:08;14.23;;;4.97;;
69260;SDS011;56378;52.404;20.816;2023-03-14T01:33:35;11.73;;;4.32;;
69260;SDS011;56378;52.404;20.816;2023-03-14T01:36:01;9.13;;;3.70;;
69260;SDS011;56378;52.404;20.816;2023-03-14T01:38:28;10.30;;;4.40;;
69260;SDS011;56378;52.404;20.816;2023-03-14T01:40:54;12.68;;;4.50;;
69260;SDS011;56378;52.404;20.816;2023-03-14T01:43:20;10.05;;;4.18;;
69260;SDS011;56378;52.404;20.816;2023-03-14T01:48:51;8.38;;;3.28;;
69260;SDS011;56378;52.404;20.816;2023-03-14T01:51:25;8.00;;;3.30;;
69260;SDS011;56378;52.404;20.816;2023-03-14T01:54:39;9.30;;;3.97;;
69260;SDS011;56378;52.404;20.816;2023-03-14T02:00:19;9.13;;;3.38;;
69260;SDS011;56378;52.404;20.816;2023-03-14T02:02:50;8.02;;;3.50;;
69260;SDS011;56378;52.404;20.816;2023-03-14T02:05:25;10.50;;;3.93;;
69260;SDS011;56378;52.404;20.816;2023-03-14T02:07:56;5.95;;;2.58;;
69260;SDS011;56378;52.404;20.816;2023-03-14T02:10:25;11.60;;;4.50;;
69260;SDS011;56378;52.404;20.816;2023-03-14T02:12:55;11.98;;;4.32;;
69260;SDS011;56378;52.404;20.816;2023-03-14T02:15:24;11.30;;;4.47;;
69260;SDS011;56378;52.404;20.816;2023-03-14T02:17:50;11.80;;;4.47;;
69260;SDS011;56378;52.404;20.816;2023-03-14T02:23:10;9.63;;;3.30;;
69260;SDS011;56378;52.404;20.816;2023-03-14T02:25:39;11.07;;;4.40;;
69260;SDS011;56378;52.404;20.816;2023-03-14T02:28:09;10.68;;;4.10;;
69260;SDS011;56378;52.404;20.816;2023-03-14T02:30:36;11.90;;;4.30;;
69260;SDS011;56378;52.404;20.816;2023-03-14T02:33:06;11.80;;;4.28;;
69260;SDS011;56378;52.404;20.816;2023-03-14T02:35:42;11.07;;;3.95;;
69260;SDS011;56378;52.404;20.816;2023-03-14T02:38:19;11.10;;;3.88;;
69260;SDS011;56378;52.404;20.816;2023-03-14T02:40:51;10.40;;;3.80;;
69260;SDS011;56378;52.404;20.816;2023-03-14T02:43:17;10.55;;;4.30;;
69260;SDS011;56378;52.404;20.816;2023-03-14T02:45:46;9.50;;;4.05;;
69260;SDS011;56378;52.404;20.816;2023-03-14T02:48:18;11.63;;;3.80;;
69260;SDS011;56378;52.404;20.816;2023-03-14T02:50:54;9.73;;;3.55;;
69260;SDS011;56378;52.404;20.816;2023-03-14T02:53:24;11.00;;;3.63;;
69260;SDS011;56378;52.404;20.816;2023-03-14T02:55:51;9.82;;;4.10;;
69260;SDS011;56378;52.404;20.816;2023-03-14T02:58:17;10.63;;;3.75;;
69260;SDS011;56378;52.404;20.816;2023-03-14T03:00:44;13.27;;;4.37;;
69260;SDS011;56378;52.404;20.816;2023-03-14T03:03:10;9.75;;;3.70;;
69260;SDS011;56378;52.404;20.816;2023-03-14T03:05:36;9.05;;;3.63;;
69260;SDS011;56378;52.404;20.816;2023-03-14T03:08:02;10.97;;;3.93;;
69260;SDS011;56378;52.404;20.816;2023-03-14T03:10:28;9.37;;;3.83;;
69260;SDS011;56378;52.404;20.816;2023-03-14T03:12:55;8.52;;;3.83;;
69260;SDS011;56378;52.404;20.816;2023-03-14T03:15:20;9.85;;;3.92;;
69260;SDS011;56378;52.404;20.816;2023-03-14T03:17:46;9.83;;;3.60;;
69260;SDS011;56378;52.404;20.816;2023-03-14T03:20:12;8.48;;;3.42;;
69260;SDS011;56378;52.404;20.816;2023-03-14T03:22:38;9.50;;;3.60;;
69260;SDS011;56378;52.404;20.816;2023-03-14T03:25:05;10.23;;;3.53;;
69260;SDS011;56378;52.404;20.816;2023-03-14T03:27:32;10.18;;;3.33;;
69260;SDS011;56378;52.404;20.816;2023-03-14T03:29:59;10.75;;;3.55;;
69260;SDS011;56378;52.404;20.816;2023-03-14T03:32:25;9.38;;;3.72;;
69260;SDS011;56378;52.404;20.816;2023-03-14T03:34:51;10.17;;;3.70;;
69260;SDS011;56378;52.404;20.816;2023-03-14T03:37:17;9.00;;;3.20;;
69260;SDS011;56378;52.404;20.816;2023-03-14T03:39:43;10.77;;;3.73;;
69260;SDS011;56378;52.404;20.816;2023-03-14T03:42:09;9.03;;;4.27;;
69260;SDS011;56378;52.404;20.816;2023-03-14T03:44:35;11.02;;;4.30;;
69260;SDS011;56378;52.404;20.816;2023-03-14T03:47:01;8.60;;;4.13;;
69260;SDS011;56378;52.404;20.816;2023-03-14T03:49:30;12.53;;;3.70;;
69260;SDS011;56378;52.404;20.816;2023-03-14T03:51:56;16.88;;;4.40;;
69260;SDS011;56378;52.404;20.816;2023-03-14T03:54:22;9.90;;;3.72;;
69260;SDS011;56378;52.404;20.816;2023-03-14T03:56:48;10.20;;;3.95;;
69260;SDS011;56378;52.404;20.816;2023-03-14T03:59:14;10.53;;;4.30;;
69260;SDS011;56378;52.404;20.816;2023-03-14T04:01:40;9.45;;;3.53;;
69260;SDS011;56378;52.404;20.816;2023-03-14T04:04:05;11.10;;;4.20;;
69260;SDS011;56378;52.404;20.816;2023-03-14T04:06:31;10.70;;;4.45;;
69260;SDS011;56378;52.404;20.816;2023-03-14T04:08:57;8.83;;;3.53;;
69260;SDS011;56378;52.404;20.816;2023-03-14T04:11:23;10.20;;;3.13;;
69260;SDS011;56378;52.404;20.816;2023-03-14T04:13:49;11.30;;;3.83;;
69260;SDS011;56378;52.404;20.816;2023-03-14T04:16:16;10.07;;;4.00;;
69260;SDS011;56378;52.404;20.816;2023-03-14T04:18:44;9.57;;;3.78;;
69260;SDS011;56378;52.404;20.816;2023-03-14T04:21:09;9.85;;;3.50;;
69260;SDS011;56378;52.404;20.816;2023-03-14T04:23:35;10.63;;;4.00;;
69260;SDS011;56378;52.404;20.816;2023-03-14T04:26:01;10.73;;;4.20;;
69260;SDS011;56378;52.404;20.816;2023-03-14T04:28:27;9.17;;;3.80;;
69260;SDS011;56378;52.404;20.816;2023-03-14T04:30:53;13.60;;;4.03;;
69260;SDS011;56378;52.404;20.816;2023-03-14T04:33:22;9.73;;;3.38;;
69260;SDS011;56378;52.404;20.816;2023-03-14T04:35:48;11.40;;;4.20;;
69260;SDS011;56378;52.404;20.816;2023-03-14T04:38:15;8.10;;;3.17;;
69260;SDS011;56378;52.404;20.816;2023-03-14T04:40:41;9.27;;;3.92;;
69260;SDS011;56378;52.404;20.816;2023-03-14T04:43:08;10.27;;;3.97;;
69260;SDS011;56378;52.404;20.816;2023-03-14T04:45:35;8.52;;;3.42;;
69260;SDS011;56378;52.404;20.816;2023-03-14T04:48:02;10.13;;;4.00;;
69260;SDS011;56378;52.404;20.816;2023-03-14T04:50:28;9.85;;;3.75;;
69260;SDS011;56378;52.404;20.816;2023-03-14T04:52:54;8.27;;;3.28;;
69260;SDS011;56378;52.404;20.816;2023-03-14T04:55:19;12.18;;;4.15;;
69260;SDS011;56378;52.404;20.816;2023-03-14T04:57:45;6.90;;;2.20;;
69260;SDS011;56378;52.404;20.816;2023-03-14T05:00:11;11.20;;;3.70;;
69260;SDS011;56378;52.404;20.816;2023-03-14T05:02:38;8.43;;;3.63;;
69260;SDS011;56378;52.404;20.816;2023-03-14T05:05:04;8.30;;;3.33;;
69260;SDS011;56378;52.404;20.816;2023-03-14T05:07:29;7.50;;;3.42;;
69260;SDS011;56378;52.404;20.816;2023-03-14T05:09:55;11.03;;;3.80;;
69260;SDS011;56378;52.404;20.816;2023-03-14T05:12:21;11.80;;;3.40;;
69260;SDS011;56378;52.404;20.816;2023-03-14T05:14:47;7.70;;;3.47;;
69260;SDS011;56378;52.404;20.816;2023-03-14T05:17:12;11.05;;;3.72;;
69260;SDS011;56378;52.404;20.816;2023-03-14T05:19:39;8.37;;;3.37;;
69260;SDS011;56378;52.404;20.816;2023-03-14T05:22:06;9.75;;;3.50;;
69260;SDS011;56378;52.404;20.816;2023-03-14T05:24:32;7.85;;;3.38;;
69260;SDS011;56378;52.404;20.816;2023-03-14T05:26:57;7.73;;;3.20;;
69260;SDS011;56378;52.404;20.816;2023-03-14T05:29:23;9.07;;;3.50;;
69260;SDS011;56378;52.404;20.816;2023-03-14T05:31:49;13.02;;;3.13;;
69260;SDS011;56378;52.404;20.816;2023-03-14T05:34:15;10.23;;;3.30;;
69260;SDS011;56378;52.404;20.816;2023-03-14T05:36:41;10.50;;;3.35;;
69260;SDS011;56378;52.404;20.816;2023-03-14T05:39:06;10.03;;;3.80;;
69260;SDS011;56378;52.404;20.816;2023-03-14T05:41:32;9.95;;;3.97;;
69260;SDS011;56378;52.404;20.816;2023-03-14T05:43:57;9.17;;;3.07;;
69260;SDS011;56378;52.404;20.816;2023-03-14T05:46:23;8.27;;;2.90;;
69260;SDS011;56378;52.404;20.816;2023-03-14T05:48:49;8.00;;;2.90;;
69260;SDS011;56378;52.404;20.816;2023-03-14T05:51:15;11.23;;;2.97;;
69260;SDS011;56378;52.404;20.816;2023-03-14T05:53:41;8.13;;;2.60;;
69260;SDS011;56378;52.404;20.816;2023-03-14T05:56:07;8.48;;;3.00;;
69260;SDS011;56378;52.404;20.816;2023-03-14T05:58:33;9.15;;;3.08;;
69260;SDS011;56378;52.404;20.816;2023-03-14T06:01:01;8.10;;;2.80;;
69260;SDS011;56378;52.404;20.816;2023-03-14T06:03:28;5.20;;;2.22;;
69260;SDS011;56378;52.404;20.816;2023-03-14T06:05:54;8.33;;;3.00;;
69260;SDS011;56378;52.404;20.816;2023-03-14T06:08:19;7.15;;;2.90;;
69260;SDS011;56378;52.404;20.816;2023-03-14T06:10:45;6.97;;;2.80;;
69260;SDS011;56378;52.404;20.816;2023-03-14T06:13:11;7.28;;;3.17;;
69260;SDS011;56378;52.404;20.816;2023-03-14T06:15:37;6.90;;;2.47;;
69260;SDS011;56378;52.404;20.816;2023-03-14T06:18:02;6.60;;;2.90;;
69260;SDS011;56378;52.404;20.816;2023-03-14T06:20:28;9.82;;;2.80;;
69260;SDS011;56378;52.404;20.816;2023-03-14T06:22:54;8.27;;;2.77;;
69260;SDS011;56378;52.404;20.816;2023-03-14T06:25:20;7.75;;;2.60;;
69260;SDS011;56378;52.404;20.816;2023-03-14T06:27:45;8.00;;;2.73;;
69260;SDS011;56378;52.404;20.816;2023-03-14T06:30:11;7.45;;;3.03;;
69260;SDS011;56378;52.404;20.816;2023-03-14T06:32:37;7.70;;;3.00;;
69260;SDS011;56378;52.404;20.816;2023-03-14T06:35:03;9.50;;;3.03;;
69260;SDS011;56378;52.404;20.816;2023-03-14T06:37:29;7.90;;;3.00;;
69260;SDS011;56378;52.404;20.816;2023-03-14T06:39:55;9.07;;;3.27;;
69260;SDS011;56378;52.404;20.816;2023-03-14T06:42:21;5.78;;;2.60;;
69260;SDS011;56378;52.404;20.816;2023-03-14T06:44:47;6.47;;;2.47;;
69260;SDS011;56378;52.404;20.816;2023-03-14T06:47:13;7.72;;;2.83;;
69260;SDS011;56378;52.404;20.816;2023-03-14T06:49:39;8.75;;;3.10;;
69260;SDS011;56378;52.404;20.816;2023-03-14T06:52:05;7.87;;;3.10;;
69260;SDS011;56378;52.404;20.816;2023-03-14T06:54:30;8.40;;;3.00;;
69260;SDS011;56378;52.404;20.816;2023-03-14T06:56:56;10.48;;;2.90;;
69260;SDS011;56378;52.404;20.816;2023-03-14T06:59:22;9.43;;;3.23;;
69260;SDS011;56378;52.404;20.816;2023-03-14T07:01:47;8.73;;;2.80;;
69260;SDS011;56378;52.404;20.816;2023-03-14T07:04:15;8.57;;;3.25;;
69260;SDS011;56378;52.404;20.816;2023-03-14T07:06:41;7.72;;;3.00;;
69260;SDS011;56378;52.404;20.816;2023-03-14T07:09:10;8.35;;;3.42;;
69260;SDS011;56378;52.404;20.816;2023-03-14T07:11:36;7.23;;;3.60;;
69260;SDS011;56378;52.404;20.816;2023-03-14T07:14:02;7.95;;;3.10;;
69260;SDS011;56378;52.404;20.816;2023-03-14T07:16:28;9.25;;;3.10;;
69260;SDS011;56378;52.404;20.816;2023-03-14T07:18:57;7.88;;;3.20;;
69260;SDS011;56378;52.404;20.816;2023-03-14T07:21:23;8.33;;;3.27;;
69260;SDS011;56378;52.404;20.816;2023-03-14T07:23:49;8.52;;;3.08;;
69260;SDS011;56378;52.404;20.816;2023-03-14T07:26:15;7.23;;;2.83;;
69260;SDS011;56378;52.404;20.816;2023-03-14T07:28:41;8.48;;;3.05;;
69260;SDS011;56378;52.404;20.816;2023-03-14T07:31:07;9.15;;;2.75;;
69260;SDS011;56378;52.404;20.816;2023-03-14T07:33:33;8.80;;;3.08;;
69260;SDS011;56378;52.404;20.816;2023-03-14T07:35:59;8.90;;;3.00;;
69260;SDS011;56378;52.404;20.816;2023-03-14T07:38:25;9.75;;;3.30;;
69260;SDS011;56378;52.404;20.816;2023-03-14T07:40:57;6.90;;;3.03;;
69260;SDS011;56378;52.404;20.816;2023-03-14T07:43:24;6.75;;;3.05;;
69260;SDS011;56378;52.404;20.816;2023-03-14T07:45:49;10.10;;;3.17;;
69260;SDS011;56378;52.404;20.816;2023-03-14T07:48:15;7.88;;;3.10;;
69260;SDS011;56378;52.404;20.816;2023-03-14T07:50:41;6.53;;;3.00;;
69260;SDS011;56378;52.404;20.816;2023-03-14T07:53:07;11.35;;;4.47;;
69260;SDS011;56378;52.404;20.816;2023-03-14T07:55:32;8.50;;;3.10;;
69260;SDS011;56378;52.404;20.816;2023-03-14T07:57:58;7.38;;;3.22;;
69260;SDS011;56378;52.404;20.816;2023-03-14T08:00:24;11.20;;;3.00;;
69260;SDS011;56378;52.404;20.816;2023-03-14T08:02:50;7.13;;;2.42;;
69260;SDS011;56378;52.404;20.816;2023-03-14T08:05:16;6.50;;;3.00;;
69260;SDS011;56378;52.404;20.816;2023-03-14T08:07:42;7.90;;;3.17;;
69260;SDS011;56378;52.404;20.816;2023-03-14T08:10:08;7.00;;;2.80;;
69260;SDS011;56378;52.404;20.816;2023-03-14T08:12:34;8.25;;;3.03;;
69260;SDS011;56378;52.404;20.816;2023-03-14T08:15:01;8.25;;;3.10;;
69260;SDS011;56378;52.404;20.816;2023-03-14T08:17:27;6.90;;;2.72;;
69260;SDS011;56378;52.404;20.816;2023-03-14T08:19:53;6.60;;;2.97;;
69260;SDS011;56378;52.404;20.816;2023-03-14T08:22:18;7.33;;;2.50;;
69260;SDS011;56378;52.404;20.816;2023-03-14T08:24:44;8.57;;;2.90;;
69260;SDS011;56378;52.404;20.816;2023-03-14T08:27:09;8.03;;;2.73;;
69260;SDS011;56378;52.404;20.816;2023-03-14T08:29:35;8.68;;;2.78;;
69260;SDS011;56378;52.404;20.816;2023-03-14T08:32:01;5.60;;;2.77;;
69260;SDS011;56378;52.404;20.816;2023-03-14T08:34:27;7.10;;;2.55;;
69260;SDS011;56378;52.404;20.816;2023-03-14T08:36:53;7.45;;;3.15;;
69260;SDS011;56378;52.404;20.816;2023-03-14T08:39:21;7.78;;;3.08;;
69260;SDS011;56378;52.404;20.816;2023-03-14T08:41:46;6.73;;;2.90;;
69260;SDS011;56378;52.404;20.816;2023-03-14T08:44:14;6.35;;;2.67;;
69260;SDS011;56378;52.404;20.816;2023-03-14T08:46:40;7.13;;;2.70;;
69260;SDS011;56378;52.404;20.816;2023-03-14T08:49:06;8.57;;;2.92;;
69260;SDS011;56378;52.404;20.816;2023-03-14T08:51:31;7.33;;;2.73;;
69260;SDS011;56378;52.404;20.816;2023-03-14T08:53:57;9.50;;;2.67;;
69260;SDS011;56378;52.404;20.816;2023-03-14T08:56:23;6.37;;;2.43;;
69260;SDS011;56378;52.404;20.816;2023-03-14T08:58:48;8.13;;;3.33;;
69260;SDS011;56378;52.404;20.816;2023-03-14T09:01:14;6.68;;;2.90;;
69260;SDS011;56378;52.404;20.816;2023-03-14T09:03:40;7.47;;;3.13;;
69260;SDS011;56378;52.404;20.816;2023-03-14T09:06:09;8.43;;;3.17;;
69260;SDS011;56378;52.404;20.816;2023-03-14T09:08:35;6.82;;;2.60;;
69260;SDS011;56378;52.404;20.816;2023-03-14T09:11:01;9.37;;;3.10;;
69260;SDS011;56378;52.404;20.816;2023-03-14T09:13:27;10.00;;;4.00;;
69260;SDS011;56378;52.404;20.816;2023-03-14T09:15:54;7.85;;;3.10;;
69260;SDS011;56378;52.404;20.816;2023-03-14T09:18:20;9.98;;;3.42;;
69260;SDS011;56378;52.404;20.816;2023-03-14T09:20:46;6.70;;;3.30;;
69260;SDS011;56378;52.404;20.816;2023-03-14T09:23:12;7.07;;;3.00;;
69260;SDS011;56378;52.404;20.816;2023-03-14T09:25:38;8.73;;;3.30;;
69260;SDS011;56378;52.404;20.816;2023-03-14T09:28:03;7.50;;;3.23;;
69260;SDS011;56378;52.404;20.816;2023-03-14T09:30:29;7.60;;;2.92;;
69260;SDS011;56378;52.404;20.816;2023-03-14T09:32:55;7.33;;;2.93;;
69260;SDS011;56378;52.404;20.816;2023-03-14T09:35:22;8.15;;;3.22;;
69260;SDS011;56378;52.404;20.816;2023-03-14T09:37:48;7.68;;;3.05;;
69260;SDS011;56378;52.404;20.816;2023-03-14T09:40:17;8.33;;;2.70;;
69260;SDS011;56378;52.404;20.816;2023-03-14T09:42:45;11.25;;;3.50;;
69260;SDS011;56378;52.404;20.816;2023-03-14T09:45:37;7.53;;;2.92;;
69260;SDS011;56378;52.404;20.816;2023-03-14T09:48:03;7.80;;;2.83;;
69260;SDS011;56378;52.404;20.816;2023-03-14T09:50:33;7.43;;;3.28;;
69260;SDS011;56378;52.404;20.816;2023-03-14T09:53:05;8.83;;;3.40;;
69260;SDS011;56378;52.404;20.816;2023-03-14T09:55:36;9.25;;;3.10;;
69260;SDS011;56378;52.404;20.816;2023-03-14T09:58:03;8.15;;;2.97;;
69260;SDS011;56378;52.404;20.816;2023-03-14T10:00:35;6.20;;;2.58;;
69260;SDS011;56378;52.404;20.816;2023-03-14T10:05:39;9.30;;;3.20;;
69260;SDS011;56378;52.404;20.816;2023-03-14T10:08:06;9.25;;;2.80;;
69260;SDS011;56378;52.404;20.816;2023-03-14T10:10:38;6.85;;;2.50;;
69260;SDS011;56378;52.404;20.816;2023-03-14T10:15:47;6.13;;;2.15;;
69260;SDS011;56378;52.404;20.816;2023-03-14T10:18:16;6.53;;;2.63;;
69260;SDS011;56378;52.404;20.816;2023-03-14T10:20:43;6.53;;;2.70;;
69260;SDS011;56378;52.404;20.816;2023-03-14T10:26:27;8.30;;;2.90;;
69260;SDS011;56378;52.404;20.816;2023-03-14T10:28:52;6.43;;;2.58;;
69260;SDS011;56378;52.404;20.816;2023-03-14T10:31:25;6.60;;;2.80;;
69260;SDS011;56378;52.404;20.816;2023-03-14T10:33:57;6.67;;;2.80;;
69260;SDS011;56378;52.404;20.816;2023-03-14T10:36:26;7.40;;;2.80;;
69260;SDS011;56378;52.404;20.816;2023-03-14T10:41:48;7.72;;;3.05;;
69260;SDS011;56378;52.404;20.816;2023-03-14T10:44:19;6.83;;;3.03;;
69260;SDS011;56378;52.404;20.816;2023-03-14T10:46:59;7.13;;;3.10;;
69260;SDS011;56378;52.404;20.816;2023-03-14T10:49:31;7.50;;;3.30;;
69260;SDS011;56378;52.404;20.816;2023-03-14T10:52:23;7.93;;;3.63;;
69260;SDS011;56378;52.404;20.816;2023-03-14T10:54:57;7.18;;;3.00;;
69260;SDS011;56378;52.404;20.816;2023-03-14T10:57:24;7.17;;;3.33;;
69260;SDS011;56378;52.404;20.816;2023-03-14T10:59:51;6.25;;;2.67;;
69260;SDS011;56378;52.404;20.816;2023-03-14T11:07:43;8.18;;;3.10;;
69260;SDS011;56378;52.404;20.816;2023-03-14T11:12:41;6.65;;;2.92;;
69260;SDS011;56378;52.404;20.816;2023-03-14T11:15:11;8.60;;;3.45;;
69260;SDS011;56378;52.404;20.816;2023-03-14T11:23:08;8.07;;;3.60;;
69260;SDS011;56378;52.404;20.816;2023-03-14T11:28:37;10.45;;;2.83;;
69260;SDS011;56378;52.404;20.816;2023-03-14T11:31:28;7.38;;;2.90;;
69260;SDS011;56378;52.404;20.816;2023-03-14T11:36:34;7.70;;;3.00;;
69260;SDS011;56378;52.404;20.816;2023-03-14T11:39:12;7.70;;;2.95;;
69260;SDS011;56378;52.404;20.816;2023-03-14T11:41:41;8.02;;;3.25;;
69260;SDS011;56378;52.404;20.816;2023-03-14T11:44:20;8.40;;;3.28;;
69260;SDS011;56378;52.404;20.816;2023-03-14T11:47:02;6.80;;;2.63;;
69260;SDS011;56378;52.404;20.816;2023-03-14T11:49:50;7.03;;;3.10;;
69260;SDS011;56378;52.404;20.816;2023-03-14T11:52:31;8.68;;;2.83;;
69260;SDS011;56378;52.404;20.816;2023-03-14T11:55:07;9.13;;;3.20;;
69260;SDS011;56378;52.404;20.816;2023-03-14T11:57:56;9.38;;;3.20;;
69260;SDS011;56378;52.404;20.816;2023-03-14T12:00:26;9.50;;;3.30;;
69260;SDS011;56378;52.404;20.816;2023-03-14T12:03:02;9.00;;;3.20;;
69260;SDS011;56378;52.404;20.816;2023-03-14T12:05:50;8.70;;;3.35;;
69260;SDS011;56378;52.404;20.816;2023-03-14T12:08:42;7.50;;;3.55;;
69260;SDS011;56378;52.404;20.816;2023-03-14T12:19:29;7.70;;;3.50;;
69260;SDS011;56378;52.404;20.816;2023-03-14T12:24:26;8.40;;;3.60;;
69260;SDS011;56378;52.404;20.816;2023-03-14T12:26:55;9.63;;;3.22;;
69260;SDS011;56378;52.404;20.816;2023-03-14T12:29:23;8.73;;;3.60;;
69260;SDS011;56378;52.404;20.816;2023-03-14T12:32:05;7.70;;;3.38;;
69260;SDS011;56378;52.404;20.816;2023-03-14T12:34:33;9.80;;;3.75;;
69260;SDS011;56378;52.404;20.816;2023-03-14T12:42:37;11.27;;;4.40;;
69260;SDS011;56378;52.404;20.816;2023-03-14T12:47:51;9.18;;;4.15;;
69260;SDS011;56378;52.404;20.816;2023-03-14T12:50:28;10.75;;;3.88;;
69260;SDS011;56378;52.404;20.816;2023-03-14T12:53:09;9.32;;;4.10;;
69260;SDS011;56378;52.404;20.816;2023-03-14T12:58:59;12.40;;;4.95;;
69260;SDS011;56378;52.404;20.816;2023-03-14T13:01:56;11.63;;;4.35;;
69260;SDS011;56378;52.404;20.816;2023-03-14T13:04:35;12.98;;;4.80;;
69260;SDS011;56378;52.404;20.816;2023-03-14T13:07:13;10.55;;;4.50;;
69260;SDS011;56378;52.404;20.816;2023-03-14T13:10:03;11.13;;;4.63;;
69260;SDS011;56378;52.404;20.816;2023-03-14T13:12:40;10.95;;;4.18;;
69260;SDS011;56378;52.404;20.816;2023-03-14T13:17:49;13.88;;;5.15;;
69260;SDS011;56378;52.404;20.816;2023-03-14T13:20:21;14.68;;;5.53;;
69260;SDS011;56378;52.404;20.816;2023-03-14T13:23:22;19.27;;;7.57;;
69260;SDS011;56378;52.404;20.816;2023-03-14T13:25:53;18.88;;;7.85;;
69260;SDS011;56378;52.404;20.816;2023-03-14T13:28:19;17.30;;;7.80;;
69260;SDS011;56378;52.404;20.816;2023-03-14T13:30:46;17.50;;;7.60;;
69260;SDS011;56378;52.404;20.816;2023-03-14T13:33:18;15.75;;;8.35;;
69260;SDS011;56378;52.404;20.816;2023-03-14T13:36:06;18.30;;;9.60;;
69260;SDS011;56378;52.404;20.816;2023-03-14T13:38:32;16.27;;;7.60;;
69260;SDS011;56378;52.404;20.816;2023-03-14T13:41:00;12.75;;;5.88;;
69260;SDS011;56378;52.404;20.816;2023-03-14T13:43:31;14.07;;;6.55;;
69260;SDS011;56378;52.404;20.816;2023-03-14T13:46:14;15.70;;;6.07;;
69260;SDS011;56378;52.404;20.816;2023-03-14T13:48:46;13.10;;;5.30;;
69260;SDS011;56378;52.404;20.816;2023-03-14T13:51:18;12.10;;;5.25;;
69260;SDS011;56378;52.404;20.816;2023-03-14T13:53:52;9.80;;;5.03;;
69260;SDS011;56378;52.404;20.816;2023-03-14T13:56:26;11.55;;;5.30;;
69260;SDS011;56378;52.404;20.816;2023-03-14T13:58:54;12.07;;;5.35;;
69260;SDS011;56378;52.404;20.816;2023-03-14T14:01:30;11.27;;;5.73;;
69260;SDS011;56378;52.404;20.816;2023-03-14T14:04:02;11.45;;;6.00;;
69260;SDS011;56378;52.404;20.816;2023-03-14T14:07:00;16.48;;;6.90;;
69260;SDS011;56378;52.404;20.816;2023-03-14T14:09:27;12.20;;;5.15;;
69260;SDS011;56378;52.404;20.816;2023-03-14T14:12:05;12.48;;;6.18;;
69260;SDS011;56378;52.404;20.816;2023-03-14T14:17:28;12.27;;;5.97;;
69260;SDS011;56378;52.404;20.816;2023-03-14T14:19:59;11.10;;;5.25;;
69260;SDS011;56378;52.404;20.816;2023-03-14T14:22:28;11.43;;;4.73;;
69260;SDS011;56378;52.404;20.816;2023-03-14T14:24:55;13.18;;;5.07;;
69260;SDS011;56378;52.404;20.816;2023-03-14T14:27:28;11.05;;;5.13;;
69260;SDS011;56378;52.404;20.816;2023-03-14T14:30:45;10.70;;;5.00;;
69260;SDS011;56378;52.404;20.816;2023-03-14T14:32:47;12.73;;;4.97;;
69260;SDS011;56378;52.404;20.816;2023-03-14T14:35:24;11.55;;;5.10;;
69260;SDS011;56378;52.404;20.816;2023-03-14T14:38:00;13.48;;;6.55;;
69260;SDS011;56378;52.404;20.816;2023-03-14T14:40:27;13.00;;;5.72;;
69260;SDS011;56378;52.404;20.816;2023-03-14T14:42:54;10.75;;;4.70;;
69260;SDS011;56378;52.404;20.816;2023-03-14T14:45:27;15.20;;;6.47;;
69260;SDS011;56378;52.404;20.816;2023-03-14T14:50:37;12.75;;;5.90;;
69260;SDS011;56378;52.404;20.816;2023-03-14T14:58:43;11.17;;;5.13;;
69260;SDS011;56378;52.404;20.816;2023-03-14T15:01:14;9.57;;;4.57;;
69260;SDS011;56378;52.404;20.816;2023-03-14T15:03:49;13.30;;;5.97;;
69260;SDS011;56378;52.404;20.816;2023-03-14T15:06:16;10.80;;;5.15;;
69260;SDS011;56378;52.404;20.816;2023-03-14T15:08:43;12.93;;;5.85;;
69260;SDS011;56378;52.404;20.816;2023-03-14T15:11:16;11.13;;;5.10;;
69260;SDS011;56378;52.404;20.816;2023-03-14T15:13:43;12.50;;;4.45;;
69260;SDS011;56378;52.404;20.816;2023-03-14T15:16:12;11.27;;;5.43;;
69260;SDS011;56378;52.404;20.816;2023-03-14T15:18:40;13.60;;;5.55;;
69260;SDS011;56378;52.404;20.816;2023-03-14T15:21:08;12.57;;;5.50;;
69260;SDS011;56378;52.404;20.816;2023-03-14T15:23:34;8.27;;;4.13;;
69260;SDS011;56378;52.404;20.816;2023-03-14T15:26:00;10.30;;;4.78;;
69260;SDS011;56378;52.404;20.816;2023-03-14T15:28:27;10.10;;;4.43;;
69260;SDS011;56378;52.404;20.816;2023-03-14T15:30:55;13.45;;;5.72;;
69260;SDS011;56378;52.404;20.816;2023-03-14T15:33:22;13.40;;;5.60;;
69260;SDS011;56378;52.404;20.816;2023-03-14T15:35:49;12.45;;;5.90;;
69260;SDS011;56378;52.404;20.816;2023-03-14T15:38:16;14.17;;;5.60;;
69260;SDS011;56378;52.404;20.816;2023-03-14T15:40:51;9.55;;;4.95;;
69260;SDS011;56378;52.404;20.816;2023-03-14T15:43:17;10.50;;;4.88;;
69260;SDS011;56378;52.404;20.816;2023-03-14T15:45:43;10.75;;;4.65;;
69260;SDS011;56378;52.404;20.816;2023-03-14T15:48:16;12.10;;;5.40;;
69260;SDS011;56378;52.404;20.816;2023-03-14T15:50:44;11.85;;;5.40;;
69260;SDS011;56378;52.404;20.816;2023-03-14T15:53:10;12.45;;;4.80;;
69260;SDS011;56378;52.404;20.816;2023-03-14T15:55:36;10.90;;;4.55;;